sensor_id;sensor_type;location;lat;lon;timestamp;P1;durP1;ratioP1;P2;durP2;ratioP2
19554;SDS011;9924;50.828;6.440;2022-09-21T00:01:07;10.02;;;3.80;;
19554;SDS011;9924;50.828;6.440;2022-09-21T00:03:35;6.10;;;3.58;;
19554;SDS011;9924;50.828;6.440;2022-09-21T00:06:02;5.78;;;3.28;;
19554;SDS011;9924;50.828;6.440;2022-09-21T00:08:29;5.70;;;2.60;;
19554;SDS011;9924;50.828;6.440;2022-09-21T00:10:55;6.28;;;3.10;;
19554;SDS011;9924;50.828;6.440;2022-09-21T00:13:21;4.25;;;2.97;;
19554;SDS011;9924;50.828;6.440;2022-09-21T00:15:48;7.78;;;3.38;;
19554;SDS011;9924;50.828;6.440;2022-09-21T00:18:14;9.52;;;3.42;;
19554;SDS011;9924;50.828;6.440;2022-09-21T00:20:40;7.20;;;3.10;;
19554;SDS011;9924;50.828;6.440;2022-09-21T00:23:09;6.85;;;3.42;;
19554;SDS011;9924;50.828;6.440;2022-09-21T00:25:35;8.35;;;3.67;;
19554;SDS011;9924;50.828;6.440;2022-09-21T00:28:00;7.75;;;3.53;;
19554;SDS011;9924;50.828;6.440;2022-09-21T00:30:26;5.07;;;2.45;;
19554;SDS011;9924;50.828;6.440;2022-09-21T00:32:52;5.90;;;3.00;;
19554;SDS011;9924;50.828;6.440;2022-09-21T00:35:18;7.65;;;2.78;;
19554;SDS011;9924;50.828;6.440;2022-09-21T00:37:44;6.28;;;2.80;;
19554;SDS011;9924;50.828;6.440;2022-09-21T00:40:10;8.57;;;2.60;;
19554;SDS011;9924;50.828;6.440;2022-09-21T00:42:36;2.75;;;2.30;;
19554;SDS011;9924;50.828;6.440;2022-09-21T00:45:02;6.70;;;2.80;;
19554;SDS011;9924;50.828;6.440;2022-09-21T00:47:32;5.85;;;2.90;;
19554;SDS011;9924;50.828;6.440;2022-09-21T00:50:14;4.50;;;2.70;;
19554;SDS011;9924;50.828;6.440;2022-09-21T00:52:43;6.45;;;2.90;;
19554;SDS011;9924;50.828;6.440;2022-09-21T00:55:18;5.25;;;3.35;;
19554;SDS011;9924;50.828;6.440;2022-09-21T00:57:56;6.32;;;3.30;;
19554;SDS011;9924;50.828;6.440;2022-09-21T01:00:26;7.65;;;3.40;;
19554;SDS011;9924;50.828;6.440;2022-09-21T01:02:52;8.10;;;3.40;;
19554;SDS011;9924;50.828;6.440;2022-09-21T01:05:26;5.75;;;3.10;;
19554;SDS011;9924;50.828;6.440;2022-09-21T01:07:53;10.00;;;3.65;;
19554;SDS011;9924;50.828;6.440;2022-09-21T01:10:21;5.90;;;3.13;;
19554;SDS011;9924;50.828;6.440;2022-09-21T01:12:54;5.53;;;2.47;;
19554;SDS011;9924;50.828;6.440;2022-09-21T01:18:45;4.28;;;2.67;;
19554;SDS011;9924;50.828;6.440;2022-09-21T01:21:16;4.60;;;2.50;;
19554;SDS011;9924;50.828;6.440;2022-09-21T01:29:31;5.32;;;2.50;;
19554;SDS011;9924;50.828;6.440;2022-09-21T01:32:22;3.75;;;2.60;;
19554;SDS011;9924;50.828;6.440;2022-09-21T01:35:00;5.30;;;2.88;;
19554;SDS011;9924;50.828;6.440;2022-09-21T01:38:02;3.85;;;2.53;;
19554;SDS011;9924;50.828;6.440;2022-09-21T01:40:32;5.95;;;2.90;;
19554;SDS011;9924;50.828;6.440;2022-09-21T01:43:02;3.90;;;2.60;;
19554;SDS011;9924;50.828;6.440;2022-09-21T01:45:34;5.80;;;2.67;;
19554;SDS011;9924;50.828;6.440;2022-09-21T01:48:04;8.30;;;3.15;;
19554;SDS011;9924;50.828;6.440;2022-09-21T01:50:33;4.13;;;3.08;;
19554;SDS011;9924;50.828;6.440;2022-09-21T01:53:06;9.35;;;3.50;;
19554;SDS011;9924;50.828;6.440;2022-09-21T01:55:48;3.88;;;2.63;;
19554;SDS011;9924;50.828;6.440;2022-09-21T01:58:32;4.68;;;3.38;;
19554;SDS011;9924;50.828;6.440;2022-09-21T02:00:59;7.93;;;3.28;;
19554;SDS011;9924;50.828;6.440;2022-09-21T02:03:32;9.25;;;3.33;;
19554;SDS011;9924;50.828;6.440;2022-09-21T02:06:04;7.38;;;3.03;;
19554;SDS011;9924;50.828;6.440;2022-09-21T02:08:31;6.88;;;3.08;;
19554;SDS011;9924;50.828;6.440;2022-09-21T02:10:58;10.95;;;3.53;;
19554;SDS011;9924;50.828;6.440;2022-09-21T02:13:25;5.10;;;3.05;;
19554;SDS011;9924;50.828;6.440;2022-09-21T02:29:47;4.03;;;2.67;;
19554;SDS011;9924;50.828;6.440;2022-09-21T02:37:47;5.13;;;3.00;;
19554;SDS011;9924;50.828;6.440;2022-09-21T02:42:47;5.72;;;2.80;;
19554;SDS011;9924;50.828;6.440;2022-09-21T02:45:19;5.30;;;2.75;;
19554;SDS011;9924;50.828;6.440;2022-09-21T02:48:08;3.78;;;2.90;;
19554;SDS011;9924;50.828;6.440;2022-09-21T02:50:52;4.47;;;2.67;;
19554;SDS011;9924;50.828;6.440;2022-09-21T02:53:28;7.30;;;3.05;;
19554;SDS011;9924;50.828;6.440;2022-09-21T02:55:57;4.85;;;2.40;;
19554;SDS011;9924;50.828;6.440;2022-09-21T02:58:30;6.70;;;3.03;;
19554;SDS011;9924;50.828;6.440;2022-09-21T03:00:59;5.45;;;2.97;;
19554;SDS011;9924;50.828;6.440;2022-09-21T03:03:26;4.13;;;2.80;;
19554;SDS011;9924;50.828;6.440;2022-09-21T03:05:52;6.05;;;2.78;;
19554;SDS011;9924;50.828;6.440;2022-09-21T03:08:19;5.90;;;2.70;;
19554;SDS011;9924;50.828;6.440;2022-09-21T03:10:45;7.38;;;2.90;;
19554;SDS011;9924;50.828;6.440;2022-09-21T03:13:14;7.30;;;2.42;;
19554;SDS011;9924;50.828;6.440;2022-09-21T03:15:41;8.40;;;3.30;;
19554;SDS011;9924;50.828;6.440;2022-09-21T03:18:08;4.75;;;3.00;;
19554;SDS011;9924;50.828;6.440;2022-09-21T03:20:35;4.45;;;2.70;;
19554;SDS011;9924;50.828;6.440;2022-09-21T03:23:05;5.15;;;2.42;;
19554;SDS011;9924;50.828;6.440;2022-09-21T03:25:31;3.53;;;2.20;;
19554;SDS011;9924;50.828;6.440;2022-09-21T03:27:57;7.68;;;2.65;;
19554;SDS011;9924;50.828;6.440;2022-09-21T03:30:23;9.23;;;3.20;;
19554;SDS011;9924;50.828;6.440;2022-09-21T03:32:52;7.90;;;3.10;;
19554;SDS011;9924;50.828;6.440;2022-09-21T03:35:19;6.00;;;2.90;;
19554;SDS011;9924;50.828;6.440;2022-09-21T03:37:46;7.00;;;3.30;;
19554;SDS011;9924;50.828;6.440;2022-09-21T03:40:13;6.93;;;3.08;;
19554;SDS011;9924;50.828;6.440;2022-09-21T03:42:40;5.75;;;2.90;;
19554;SDS011;9924;50.828;6.440;2022-09-21T03:45:07;6.13;;;3.30;;
19554;SDS011;9924;50.828;6.440;2022-09-21T03:47:35;6.32;;;2.60;;
19554;SDS011;9924;50.828;6.440;2022-09-21T03:50:02;5.88;;;3.42;;
19554;SDS011;9924;50.828;6.440;2022-09-21T03:52:29;4.13;;;3.13;;
19554;SDS011;9924;50.828;6.440;2022-09-21T03:54:55;5.18;;;3.08;;
19554;SDS011;9924;50.828;6.440;2022-09-21T03:57:21;6.78;;;3.83;;
19554;SDS011;9924;50.828;6.440;2022-09-21T03:59:46;6.75;;;3.70;;
19554;SDS011;9924;50.828;6.440;2022-09-21T04:02:13;5.40;;;3.28;;
19554;SDS011;9924;50.828;6.440;2022-09-21T04:04:39;7.57;;;3.50;;
19554;SDS011;9924;50.828;6.440;2022-09-21T04:07:05;6.05;;;3.20;;
19554;SDS011;9924;50.828;6.440;2022-09-21T04:09:31;4.03;;;2.97;;
19554;SDS011;9924;50.828;6.440;2022-09-21T04:11:57;8.70;;;3.03;;
19554;SDS011;9924;50.828;6.440;2022-09-21T04:14:22;6.05;;;2.63;;
19554;SDS011;9924;50.828;6.440;2022-09-21T04:16:48;4.43;;;2.58;;
19554;SDS011;9924;50.828;6.440;2022-09-21T04:19:15;4.97;;;3.10;;
19554;SDS011;9924;50.828;6.440;2022-09-21T04:21:42;7.13;;;2.90;;
19554;SDS011;9924;50.828;6.440;2022-09-21T04:24:07;6.78;;;2.80;;
19554;SDS011;9924;50.828;6.440;2022-09-21T04:26:34;4.38;;;3.08;;
19554;SDS011;9924;50.828;6.440;2022-09-21T04:29:00;6.95;;;2.97;;
19554;SDS011;9924;50.828;6.440;2022-09-21T04:31:27;6.18;;;2.83;;
19554;SDS011;9924;50.828;6.440;2022-09-21T04:33:54;3.55;;;2.10;;
19554;SDS011;9924;50.828;6.440;2022-09-21T04:36:21;2.63;;;1.88;;
19554;SDS011;9924;50.828;6.440;2022-09-21T04:38:48;6.32;;;2.40;;
19554;SDS011;9924;50.828;6.440;2022-09-21T04:41:15;3.00;;;1.58;;
19554;SDS011;9924;50.828;6.440;2022-09-21T04:43:41;5.40;;;2.05;;
19554;SDS011;9924;50.828;6.440;2022-09-21T04:46:12;4.28;;;2.28;;
19554;SDS011;9924;50.828;6.440;2022-09-21T04:48:40;15.02;;;3.42;;
19554;SDS011;9924;50.828;6.440;2022-09-21T04:51:06;5.25;;;3.15;;
19554;SDS011;9924;50.828;6.440;2022-09-21T04:53:33;11.27;;;4.10;;
19554;SDS011;9924;50.828;6.440;2022-09-21T04:56:00;11.05;;;4.18;;
19554;SDS011;9924;50.828;6.440;2022-09-21T04:58:25;5.95;;;3.90;;
19554;SDS011;9924;50.828;6.440;2022-09-21T05:00:52;16.27;;;4.80;;
19554;SDS011;9924;50.828;6.440;2022-09-21T05:03:19;6.68;;;4.10;;
19554;SDS011;9924;50.828;6.440;2022-09-21T05:05:48;8.70;;;3.92;;
19554;SDS011;9924;50.828;6.440;2022-09-21T05:08:15;6.95;;;3.58;;
19554;SDS011;9924;50.828;6.440;2022-09-21T05:10:42;6.32;;;3.80;;
19554;SDS011;9924;50.828;6.440;2022-09-21T05:13:08;8.07;;;3.75;;
19554;SDS011;9924;50.828;6.440;2022-09-21T05:15:37;5.13;;;3.20;;
19554;SDS011;9924;50.828;6.440;2022-09-21T05:18:03;4.80;;;3.30;;
19554;SDS011;9924;50.828;6.440;2022-09-21T05:20:29;6.13;;;3.05;;
19554;SDS011;9924;50.828;6.440;2022-09-21T05:22:58;5.50;;;2.78;;
19554;SDS011;9924;50.828;6.440;2022-09-21T05:25:25;3.50;;;2.83;;
19554;SDS011;9924;50.828;6.440;2022-09-21T05:27:51;7.05;;;3.05;;
19554;SDS011;9924;50.828;6.440;2022-09-21T05:30:17;4.95;;;2.92;;
19554;SDS011;9924;50.828;6.440;2022-09-21T05:33:00;3.45;;;2.88;;
19554;SDS011;9924;50.828;6.440;2022-09-21T05:35:37;7.00;;;3.10;;
19554;SDS011;9924;50.828;6.440;2022-09-21T05:38:14;6.50;;;3.42;;
19554;SDS011;9924;50.828;6.440;2022-09-21T05:40:42;7.50;;;3.55;;
19554;SDS011;9924;50.828;6.440;2022-09-21T05:43:09;5.05;;;3.42;;
19554;SDS011;9924;50.828;6.440;2022-09-21T05:45:45;7.50;;;3.47;;
19554;SDS011;9924;50.828;6.440;2022-09-21T05:48:16;5.60;;;3.08;;
19554;SDS011;9924;50.828;6.440;2022-09-21T05:50:48;7.40;;;3.17;;
19554;SDS011;9924;50.828;6.440;2022-09-21T06:04:35;7.57;;;3.45;;
19554;SDS011;9924;50.828;6.440;2022-09-21T06:07:01;9.30;;;4.30;;
19554;SDS011;9924;50.828;6.440;2022-09-21T06:09:27;9.00;;;4.05;;
19554;SDS011;9924;50.828;6.440;2022-09-21T06:11:53;9.45;;;4.20;;
19554;SDS011;9924;50.828;6.440;2022-09-21T06:14:19;8.40;;;4.25;;
19554;SDS011;9924;50.828;6.440;2022-09-21T06:16:49;5.63;;;3.65;;
19554;SDS011;9924;50.828;6.440;2022-09-21T06:19:15;8.82;;;4.60;;
19554;SDS011;9924;50.828;6.440;2022-09-21T06:21:41;12.18;;;5.07;;
19554;SDS011;9924;50.828;6.440;2022-09-21T06:24:07;7.60;;;5.07;;
19554;SDS011;9924;50.828;6.440;2022-09-21T06:26:33;7.13;;;4.47;;
19554;SDS011;9924;50.828;6.440;2022-09-21T06:28:59;13.32;;;4.18;;
19554;SDS011;9924;50.828;6.440;2022-09-21T06:31:26;9.30;;;3.67;;
19554;SDS011;9924;50.828;6.440;2022-09-21T06:33:52;8.20;;;4.22;;
19554;SDS011;9924;50.828;6.440;2022-09-21T06:36:17;11.90;;;4.68;;
19554;SDS011;9924;50.828;6.440;2022-09-21T06:38:43;11.45;;;4.07;;
19554;SDS011;9924;50.828;6.440;2022-09-21T06:41:09;10.52;;;4.03;;
19554;SDS011;9924;50.828;6.440;2022-09-21T06:43:35;8.27;;;4.05;;
19554;SDS011;9924;50.828;6.440;2022-09-21T06:46:01;7.28;;;4.00;;
19554;SDS011;9924;50.828;6.440;2022-09-21T06:48:28;10.93;;;4.53;;
19554;SDS011;9924;50.828;6.440;2022-09-21T06:50:58;9.52;;;4.22;;
19554;SDS011;9924;50.828;6.440;2022-09-21T06:53:25;10.52;;;4.82;;
19554;SDS011;9924;50.828;6.440;2022-09-21T06:55:51;11.50;;;5.15;;
19554;SDS011;9924;50.828;6.440;2022-09-21T06:58:17;12.43;;;5.90;;
19554;SDS011;9924;50.828;6.440;2022-09-21T07:00:43;8.65;;;4.95;;
19554;SDS011;9924;50.828;6.440;2022-09-21T07:03:10;10.40;;;5.45;;
19554;SDS011;9924;50.828;6.440;2022-09-21T07:05:39;13.23;;;5.60;;
19554;SDS011;9924;50.828;6.440;2022-09-21T07:08:08;14.70;;;5.43;;
19554;SDS011;9924;50.828;6.440;2022-09-21T07:10:34;17.73;;;5.43;;
19554;SDS011;9924;50.828;6.440;2022-09-21T07:13:03;10.63;;;4.88;;
19554;SDS011;9924;50.828;6.440;2022-09-21T07:15:30;13.20;;;5.00;;
19554;SDS011;9924;50.828;6.440;2022-09-21T07:17:56;14.15;;;5.75;;
19554;SDS011;9924;50.828;6.440;2022-09-21T07:20:22;10.07;;;5.35;;
19554;SDS011;9924;50.828;6.440;2022-09-21T07:22:48;9.10;;;5.10;;
19554;SDS011;9924;50.828;6.440;2022-09-21T07:25:14;10.23;;;4.50;;
19554;SDS011;9924;50.828;6.440;2022-09-21T07:27:40;9.98;;;4.45;;
19554;SDS011;9924;50.828;6.440;2022-09-21T07:30:06;9.20;;;4.82;;
19554;SDS011;9924;50.828;6.440;2022-09-21T07:32:33;7.38;;;4.72;;
19554;SDS011;9924;50.828;6.440;2022-09-21T07:34:59;9.52;;;5.07;;
19554;SDS011;9924;50.828;6.440;2022-09-21T07:37:25;11.15;;;4.55;;
19554;SDS011;9924;50.828;6.440;2022-09-21T07:39:51;11.05;;;4.75;;
19554;SDS011;9924;50.828;6.440;2022-09-21T07:42:17;13.93;;;5.88;;
19554;SDS011;9924;50.828;6.440;2022-09-21T07:44:46;8.55;;;4.32;;
19554;SDS011;9924;50.828;6.440;2022-09-21T07:47:12;12.38;;;5.03;;
19554;SDS011;9924;50.828;6.440;2022-09-21T07:49:38;16.17;;;5.25;;
19554;SDS011;9924;50.828;6.440;2022-09-21T07:52:05;9.27;;;5.57;;
19554;SDS011;9924;50.828;6.440;2022-09-21T07:54:33;12.55;;;5.55;;
19554;SDS011;9924;50.828;6.440;2022-09-21T07:56:59;10.90;;;5.90;;
19554;SDS011;9924;50.828;6.440;2022-09-21T07:59:45;11.68;;;5.82;;
19554;SDS011;9924;50.828;6.440;2022-09-21T08:02:11;11.15;;;6.40;;
19554;SDS011;9924;50.828;6.440;2022-09-21T08:04:37;14.77;;;6.63;;
19554;SDS011;9924;50.828;6.440;2022-09-21T08:07:03;12.07;;;6.35;;
19554;SDS011;9924;50.828;6.440;2022-09-21T08:09:29;14.30;;;6.68;;
19554;SDS011;9924;50.828;6.440;2022-09-21T08:11:55;11.07;;;7.18;;
19554;SDS011;9924;50.828;6.440;2022-09-21T08:14:22;13.65;;;7.68;;
19554;SDS011;9924;50.828;6.440;2022-09-21T08:16:48;14.40;;;9.20;;
19554;SDS011;9924;50.828;6.440;2022-09-21T08:19:14;16.40;;;9.60;;
19554;SDS011;9924;50.828;6.440;2022-09-21T08:21:41;17.92;;;9.77;;
19554;SDS011;9924;50.828;6.440;2022-09-21T08:24:07;23.27;;;13.75;;
19554;SDS011;9924;50.828;6.440;2022-09-21T08:26:33;22.95;;;13.43;;
19554;SDS011;9924;50.828;6.440;2022-09-21T08:28:59;20.60;;;12.68;;
19554;SDS011;9924;50.828;6.440;2022-09-21T08:31:25;20.27;;;11.98;;
19554;SDS011;9924;50.828;6.440;2022-09-21T08:33:51;18.92;;;10.93;;
19554;SDS011;9924;50.828;6.440;2022-09-21T08:36:19;18.63;;;11.57;;
19554;SDS011;9924;50.828;6.440;2022-09-21T08:38:45;18.92;;;10.75;;
19554;SDS011;9924;50.828;6.440;2022-09-21T08:41:22;22.00;;;11.32;;
19554;SDS011;9924;50.828;6.440;2022-09-21T08:47:32;20.42;;;10.13;;
19554;SDS011;9924;50.828;6.440;2022-09-21T08:50:03;18.58;;;10.57;;
19554;SDS011;9924;50.828;6.440;2022-09-21T08:52:37;19.33;;;9.07;;
19554;SDS011;9924;50.828;6.440;2022-09-21T08:55:11;14.50;;;7.57;;
19554;SDS011;9924;50.828;6.440;2022-09-21T08:57:43;13.90;;;8.00;;
19554;SDS011;9924;50.828;6.440;2022-09-21T09:00:12;13.77;;;8.10;;
19554;SDS011;9924;50.828;6.440;2022-09-21T09:02:44;12.95;;;7.40;;
19554;SDS011;9924;50.828;6.440;2022-09-21T09:11:03;14.13;;;6.95;;
19554;SDS011;9924;50.828;6.440;2022-09-21T09:20:02;11.68;;;4.93;;
19554;SDS011;9924;50.828;6.440;2022-09-21T09:23:01;10.18;;;5.13;;
19554;SDS011;9924;50.828;6.440;2022-09-21T09:25:35;10.80;;;4.80;;
19554;SDS011;9924;50.828;6.440;2022-09-21T09:28:12;7.95;;;4.10;;
19554;SDS011;9924;50.828;6.440;2022-09-21T09:30:53;8.77;;;4.20;;
19554;SDS011;9924;50.828;6.440;2022-09-21T09:36:45;8.45;;;3.60;;
19554;SDS011;9924;50.828;6.440;2022-09-21T09:39:15;11.25;;;4.00;;
19554;SDS011;9924;50.828;6.440;2022-09-21T09:50:26;8.75;;;3.28;;
19554;SDS011;9924;50.828;6.440;2022-09-21T09:55:51;5.88;;;3.30;;
19554;SDS011;9924;50.828;6.440;2022-09-21T09:58:22;5.63;;;2.95;;
19554;SDS011;9924;50.828;6.440;2022-09-21T10:00:52;7.15;;;2.92;;
19554;SDS011;9924;50.828;6.440;2022-09-21T10:03:20;7.55;;;2.90;;
19554;SDS011;9924;50.828;6.440;2022-09-21T10:05:47;10.15;;;2.97;;
19554;SDS011;9924;50.828;6.440;2022-09-21T10:10:51;7.75;;;3.00;;
19554;SDS011;9924;50.828;6.440;2022-09-21T10:13:21;5.93;;;2.72;;
19554;SDS011;9924;50.828;6.440;2022-09-21T10:15:52;8.80;;;2.85;;
19554;SDS011;9924;50.828;6.440;2022-09-21T10:19:03;8.68;;;2.63;;
19554;SDS011;9924;50.828;6.440;2022-09-21T10:24:01;9.05;;;3.13;;
19554;SDS011;9924;50.828;6.440;2022-09-21T10:26:43;8.10;;;2.85;;
19554;SDS011;9924;50.828;6.440;2022-09-21T10:34:22;4.82;;;2.40;;
19554;SDS011;9924;50.828;6.440;2022-09-21T10:36:52;5.72;;;2.70;;
19554;SDS011;9924;50.828;6.440;2022-09-21T10:39:29;5.18;;;2.60;;
19554;SDS011;9924;50.828;6.440;2022-09-21T10:42:11;6.40;;;2.30;;
19554;SDS011;9924;50.828;6.440;2022-09-21T10:44:43;6.43;;;2.30;;
19554;SDS011;9924;50.828;6.440;2022-09-21T10:47:33;7.97;;;2.50;;
19554;SDS011;9924;50.828;6.440;2022-09-21T10:50:05;9.82;;;2.67;;
19554;SDS011;9924;50.828;6.440;2022-09-21T10:52:45;4.38;;;2.15;;
19554;SDS011;9924;50.828;6.440;2022-09-21T10:55:16;6.15;;;2.08;;
19554;SDS011;9924;50.828;6.440;2022-09-21T10:57:44;4.75;;;1.75;;
19554;SDS011;9924;50.828;6.440;2022-09-21T11:02:50;6.72;;;2.47;;
19554;SDS011;9924;50.828;6.440;2022-09-21T11:08:06;6.03;;;1.73;;
19554;SDS011;9924;50.828;6.440;2022-09-21T11:10:45;5.70;;;1.63;;
19554;SDS011;9924;50.828;6.440;2022-09-21T11:16:15;5.25;;;1.60;;
19554;SDS011;9924;50.828;6.440;2022-09-21T11:18:56;5.90;;;2.10;;
19554;SDS011;9924;50.828;6.440;2022-09-21T11:21:45;7.22;;;1.70;;
19554;SDS011;9924;50.828;6.440;2022-09-21T11:26:52;5.35;;;1.63;;
19554;SDS011;9924;50.828;6.440;2022-09-21T11:38:32;4.95;;;1.80;;
19554;SDS011;9924;50.828;6.440;2022-09-21T11:47:10;4.40;;;1.50;;
19554;SDS011;9924;50.828;6.440;2022-09-21T11:55:41;6.85;;;1.90;;
19554;SDS011;9924;50.828;6.440;2022-09-21T12:01:12;3.95;;;1.52;;
19554;SDS011;9924;50.828;6.440;2022-09-21T12:13:12;3.38;;;1.13;;
19554;SDS011;9924;50.828;6.440;2022-09-21T12:18:52;5.68;;;1.00;;
19554;SDS011;9924;50.828;6.440;2022-09-21T12:21:29;4.03;;;1.27;;
19554;SDS011;9924;50.828;6.440;2022-09-21T12:24:03;4.90;;;1.27;;
19554;SDS011;9924;50.828;6.440;2022-09-21T12:26:36;5.10;;;1.40;;
19554;SDS011;9924;50.828;6.440;2022-09-21T12:29:51;4.78;;;1.65;;
19554;SDS011;9924;50.828;6.440;2022-09-21T12:32:02;5.35;;;1.27;;
19554;SDS011;9924;50.828;6.440;2022-09-21T12:34:33;6.65;;;1.60;;
19554;SDS011;9924;50.828;6.440;2022-09-21T12:39:38;4.57;;;1.50;;
19554;SDS011;9924;50.828;6.440;2022-09-21T12:42:21;6.03;;;1.40;;
19554;SDS011;9924;50.828;6.440;2022-09-21T12:45:02;4.10;;;1.23;;
19554;SDS011;9924;50.828;6.440;2022-09-21T12:47:51;2.75;;;1.27;;
19554;SDS011;9924;50.828;6.440;2022-09-21T12:50:37;4.75;;;0.95;;
19554;SDS011;9924;50.828;6.440;2022-09-21T12:53:25;4.93;;;1.05;;
19554;SDS011;9924;50.828;6.440;2022-09-21T12:55:59;3.13;;;1.10;;
19554;SDS011;9924;50.828;6.440;2022-09-21T12:58:44;2.90;;;0.90;;
19554;SDS011;9924;50.828;6.440;2022-09-21T13:04:38;4.97;;;1.35;;
19554;SDS011;9924;50.828;6.440;2022-09-21T13:12:53;5.53;;;1.40;;
19554;SDS011;9924;50.828;6.440;2022-09-21T13:18:34;5.38;;;1.50;;
19554;SDS011;9924;50.828;6.440;2022-09-21T13:20:42;2.97;;;1.20;;
19554;SDS011;9924;50.828;6.440;2022-09-21T13:23:13;5.00;;;1.50;;
19554;SDS011;9924;50.828;6.440;2022-09-21T13:25:45;4.80;;;1.70;;
19554;SDS011;9924;50.828;6.440;2022-09-21T13:28:23;6.10;;;1.40;;
19554;SDS011;9924;50.828;6.440;2022-09-21T13:31:28;3.67;;;1.27;;
19554;SDS011;9924;50.828;6.440;2022-09-21T13:34:24;3.08;;;1.02;;
19554;SDS011;9924;50.828;6.440;2022-09-21T13:47:30;3.67;;;1.20;;
19554;SDS011;9924;50.828;6.440;2022-09-21T13:49:57;6.32;;;1.38;;
19554;SDS011;9924;50.828;6.440;2022-09-21T13:52:42;4.82;;;1.30;;
19554;SDS011;9924;50.828;6.440;2022-09-21T13:55:31;4.38;;;1.17;;
19554;SDS011;9924;50.828;6.440;2022-09-21T13:58:02;3.63;;;1.35;;
19554;SDS011;9924;50.828;6.440;2022-09-21T14:00:38;3.80;;;1.35;;
19554;SDS011;9924;50.828;6.440;2022-09-21T14:06:07;3.97;;;1.02;;
19554;SDS011;9924;50.828;6.440;2022-09-21T14:08:38;2.38;;;1.05;;
19554;SDS011;9924;50.828;6.440;2022-09-21T14:11:55;4.57;;;1.25;;
19554;SDS011;9924;50.828;6.440;2022-09-21T14:24:36;2.85;;;1.00;;
19554;SDS011;9924;50.828;6.440;2022-09-21T14:27:26;2.03;;;0.90;;
19554;SDS011;9924;50.828;6.440;2022-09-21T14:32:41;3.95;;;0.90;;
19554;SDS011;9924;50.828;6.440;2022-09-21T14:35:15;3.88;;;1.00;;
19554;SDS011;9924;50.828;6.440;2022-09-21T14:37:57;4.07;;;1.02;;
19554;SDS011;9924;50.828;6.440;2022-09-21T14:40:38;2.47;;;0.77;;
19554;SDS011;9924;50.828;6.440;2022-09-21T14:43:13;4.47;;;1.40;;
19554;SDS011;9924;50.828;6.440;2022-09-21T14:51:32;3.92;;;0.75;;
19554;SDS011;9924;50.828;6.440;2022-09-21T14:54:18;4.28;;;1.02;;
19554;SDS011;9924;50.828;6.440;2022-09-21T14:57:17;4.15;;;0.85;;
19554;SDS011;9924;50.828;6.440;2022-09-21T15:00:05;4.38;;;1.05;;
19554;SDS011;9924;50.828;6.440;2022-09-21T15:05:39;3.97;;;0.90;;
19554;SDS011;9924;50.828;6.440;2022-09-21T15:11:27;3.85;;;1.00;;
19554;SDS011;9924;50.828;6.440;2022-09-21T15:16:38;7.53;;;2.67;;
19554;SDS011;9924;50.828;6.440;2022-09-21T15:19:22;3.33;;;1.20;;
19554;SDS011;9924;50.828;6.440;2022-09-21T15:21:53;3.17;;;1.30;;
19554;SDS011;9924;50.828;6.440;2022-09-21T15:24:46;10.88;;;4.28;;
19554;SDS011;9924;50.828;6.440;2022-09-21T15:27:24;3.20;;;1.13;;
19554;SDS011;9924;50.828;6.440;2022-09-21T15:29:57;2.65;;;0.98;;
19554;SDS011;9924;50.828;6.440;2022-09-21T15:35:17;2.75;;;1.00;;
19554;SDS011;9924;50.828;6.440;2022-09-21T15:37:45;2.08;;;0.70;;
19554;SDS011;9924;50.828;6.440;2022-09-21T15:45:55;3.75;;;1.88;;
19554;SDS011;9924;50.828;6.440;2022-09-21T15:48:25;5.65;;;1.30;;
19554;SDS011;9924;50.828;6.440;2022-09-21T15:51:01;10.80;;;3.05;;
19554;SDS011;9924;50.828;6.440;2022-09-21T15:53:43;4.25;;;1.00;;
19554;SDS011;9924;50.828;6.440;2022-09-21T15:56:19;35.08;;;17.63;;
19554;SDS011;9924;50.828;6.440;2022-09-21T15:58:50;11.07;;;2.50;;
19554;SDS011;9924;50.828;6.440;2022-09-21T16:01:23;9.35;;;2.78;;
19554;SDS011;9924;50.828;6.440;2022-09-21T16:04:04;4.07;;;1.40;;
19554;SDS011;9924;50.828;6.440;2022-09-21T16:06:34;20.52;;;9.88;;
19554;SDS011;9924;50.828;6.440;2022-09-21T16:11:50;6.32;;;1.42;;
19554;SDS011;9924;50.828;6.440;2022-09-21T16:14:16;5.03;;;1.92;;
19554;SDS011;9924;50.828;6.440;2022-09-21T16:19:42;2.92;;;0.98;;
19554;SDS011;9924;50.828;6.440;2022-09-21T16:22:36;3.63;;;1.25;;
19554;SDS011;9924;50.828;6.440;2022-09-21T16:30:39;3.47;;;1.00;;
19554;SDS011;9924;50.828;6.440;2022-09-21T16:38:58;4.80;;;1.33;;
19554;SDS011;9924;50.828;6.440;2022-09-21T16:44:01;5.10;;;1.25;;
19554;SDS011;9924;50.828;6.440;2022-09-21T16:46:27;4.00;;;1.50;;
19554;SDS011;9924;50.828;6.440;2022-09-21T16:48:53;1.52;;;0.90;;
19554;SDS011;9924;50.828;6.440;2022-09-21T16:51:19;4.20;;;1.40;;
19554;SDS011;9924;50.828;6.440;2022-09-21T16:53:52;2.35;;;1.15;;
19554;SDS011;9924;50.828;6.440;2022-09-21T16:56:18;5.30;;;1.73;;
19554;SDS011;9924;50.828;6.440;2022-09-21T16:58:45;4.15;;;1.92;;
19554;SDS011;9924;50.828;6.440;2022-09-21T17:01:12;2.67;;;1.40;;
19554;SDS011;9924;50.828;6.440;2022-09-21T17:03:40;3.55;;;1.90;;
19554;SDS011;9924;50.828;6.440;2022-09-21T17:06:12;5.45;;;3.28;;
19554;SDS011;9924;50.828;6.440;2022-09-21T17:08:43;11.23;;;5.38;;
19554;SDS011;9924;50.828;6.440;2022-09-21T17:11:12;14.32;;;7.10;;
19554;SDS011;9924;50.828;6.440;2022-09-21T17:13:47;15.60;;;8.32;;
19554;SDS011;9924;50.828;6.440;2022-09-21T17:16:21;24.40;;;12.32;;
19554;SDS011;9924;50.828;6.440;2022-09-21T17:18:48;29.95;;;13.25;;
19554;SDS011;9924;50.828;6.440;2022-09-21T17:21:14;50.50;;;21.67;;
19554;SDS011;9924;50.828;6.440;2022-09-21T17:23:41;37.13;;;18.38;;
19554;SDS011;9924;50.828;6.440;2022-09-21T17:26:14;38.63;;;18.63;;
19554;SDS011;9924;50.828;6.440;2022-09-21T17:28:43;39.63;;;16.42;;
19554;SDS011;9924;50.828;6.440;2022-09-21T17:31:12;38.63;;;16.70;;
19554;SDS011;9924;50.828;6.440;2022-09-21T17:33:40;38.42;;;16.58;;
19554;SDS011;9924;50.828;6.440;2022-09-21T17:36:13;38.53;;;18.38;;
19554;SDS011;9924;50.828;6.440;2022-09-21T17:38:39;39.90;;;19.52;;
19554;SDS011;9924;50.828;6.440;2022-09-21T17:41:30;49.90;;;21.63;;
19554;SDS011;9924;50.828;6.440;2022-09-21T17:44:10;49.53;;;20.90;;
19554;SDS011;9924;50.828;6.440;2022-09-21T17:49:17;41.75;;;17.50;;
19554;SDS011;9924;50.828;6.440;2022-09-21T17:51:43;27.45;;;12.25;;
19554;SDS011;9924;50.828;6.440;2022-09-21T17:54:27;25.02;;;11.85;;
19554;SDS011;9924;50.828;6.440;2022-09-21T17:57:03;25.77;;;13.07;;
19554;SDS011;9924;50.828;6.440;2022-09-21T17:59:35;35.55;;;16.42;;
19554;SDS011;9924;50.828;6.440;2022-09-21T18:02:02;40.67;;;17.75;;
19554;SDS011;9924;50.828;6.440;2022-09-21T18:04:46;33.08;;;15.90;;
19554;SDS011;9924;50.828;6.440;2022-09-21T18:07:15;30.33;;;14.05;;
19554;SDS011;9924;50.828;6.440;2022-09-21T18:09:43;23.58;;;11.60;;
19554;SDS011;9924;50.828;6.440;2022-09-21T18:12:27;23.02;;;11.25;;
19554;SDS011;9924;50.828;6.440;2022-09-21T18:20:53;19.77;;;9.93;;
19554;SDS011;9924;50.828;6.440;2022-09-21T18:26:11;18.90;;;7.72;;
19554;SDS011;9924;50.828;6.440;2022-09-21T18:28:46;17.63;;;7.50;;
19554;SDS011;9924;50.828;6.440;2022-09-21T18:48:23;4.82;;;1.42;;
19554;SDS011;9924;50.828;6.440;2022-09-21T18:54:02;3.60;;;1.10;;
19554;SDS011;9924;50.828;6.440;2022-09-21T18:56:33;7.45;;;1.60;;
19554;SDS011;9924;50.828;6.440;2022-09-21T18:59:01;2.17;;;1.70;;
19554;SDS011;9924;50.828;6.440;2022-09-21T19:01:28;3.42;;;1.55;;
19554;SDS011;9924;50.828;6.440;2022-09-21T19:03:57;3.50;;;2.03;;
19554;SDS011;9924;50.828;6.440;2022-09-21T19:06:28;4.95;;;1.80;;
19554;SDS011;9924;50.828;6.440;2022-09-21T19:09:02;3.42;;;1.77;;
19554;SDS011;9924;50.828;6.440;2022-09-21T19:11:45;2.88;;;1.20;;
19554;SDS011;9924;50.828;6.440;2022-09-21T19:14:38;2.47;;;1.08;;
19554;SDS011;9924;50.828;6.440;2022-09-21T19:23:17;3.17;;;1.70;;
19554;SDS011;9924;50.828;6.440;2022-09-21T19:25:50;2.08;;;1.30;;
19554;SDS011;9924;50.828;6.440;2022-09-21T19:31:02;4.07;;;1.80;;
19554;SDS011;9924;50.828;6.440;2022-09-21T19:33:33;4.97;;;1.83;;
19554;SDS011;9924;50.828;6.440;2022-09-21T19:36:00;4.35;;;1.92;;